Time;durP1;ratioP1;P1;durP2;ratioP2;P2;SDS_P1;SDS_P2;PMS_P1;PMS_P2;Temp;Humidity;BMP_temperature;BMP_pressure;BME280_temperature;BME280_humidity;BME280_pressure;Samples;Min_cycle;Max_cycle;Signal;HPM_P1;HPM_P2
2022/10/05 00:00:15;;;;;;;2.45;2.17;;;;;;;;;;5088366;28;20032;-41
2022/10/05 00:02:41;;;;;;;3.40;2.50;;;;;;;;;;5087910;28;20028;-41
2022/10/05 00:05:18;;;;;;;2.97;2.50;;;;;;;;;;5087462;28;20028;-41
2022/10/05 00:07:44;;;;;;;3.55;2.72;;;;;;;;;;5088185;28;20502;-41
2022/10/05 00:10:15;;;;;;;2.90;2.47;;;;;;;;;;5087986;28;20040;-40
2022/10/05 00:12:43;;;;;;;3.45;2.65;;;;;;;;;;5087730;28;20036;-42
2022/10/05 00:15:11;;;;;;;3.70;2.50;;;;;;;;;;5088056;28;20035;-41
2022/10/05 00:17:37;;;;;;;4.47;2.70;;;;;;;;;;5087826;28;20024;-41
2022/10/05 00:20:23;;;;;;;3.22;2.30;;;;;;;;;;5087742;28;20027;-41
2022/10/05 00:22:51;;;;;;;3.30;2.17;;;;;;;;;;5087768;28;20024;-42
2022/10/05 00:25:20;;;;;;;3.00;2.08;;;;;;;;;;5087005;28;20032;-40
2022/10/05 00:27:51;;;;;;;2.20;1.92;;;;;;;;;;5087628;28;20043;-41
2022/10/05 00:30:19;;;;;;;2.58;1.98;;;;;;;;;;5088209;28;20028;-41
2022/10/05 00:32:46;;;;;;;2.83;2.10;;;;;;;;;;5087973;28;20046;-41
2022/10/05 00:35:13;;;;;;;2.38;2.15;;;;;;;;;;5087997;28;20028;-41
2022/10/05 00:37:39;;;;;;;3.35;2.22;;;;;;;;;;5087744;28;20020;-41
2022/10/05 00:40:10;;;;;;;4.15;2.03;;;;;;;;;;5081996;28;20571;-41
2022/10/05 00:42:37;;;;;;;2.33;2.08;;;;;;;;;;5067554;28;20028;-41
2022/10/05 00:45:03;;;;;;;2.88;2.10;;;;;;;;;;5068103;28;20025;-41
2022/10/05 00:47:29;;;;;;;2.78;2.22;;;;;;;;;;5067729;28;20063;-41
2022/10/05 00:49:58;;;;;;;2.40;2.00;;;;;;;;;;5067281;28;20028;-41
2022/10/05 00:52:42;;;;;;;2.40;1.95;;;;;;;;;;5067352;28;20029;-41
2022/10/05 00:55:15;;;;;;;2.70;2.10;;;;;;;;;;5076707;28;20042;-42
2022/10/05 00:57:58;;;;;;;2.80;2.17;;;;;;;;;;5085631;28;21025;-41
2022/10/05 01:00:25;;;;;;;2.92;2.15;;;;;;;;;;5087658;28;20020;-41
2022/10/05 01:02:55;;;;;;;3.95;2.60;;;;;;;;;;5087252;28;20106;-41
2022/10/05 01:05:42;;;;;;;3.38;2.30;;;;;;;;;;5087471;28;20495;-41
2022/10/05 01:08:23;;;;;;;3.10;2.28;;;;;;;;;;5086528;28;20555;-41
2022/10/05 01:10:49;;;;;;;2.58;2.08;;;;;;;;;;5087350;28;20043;-41
2022/10/05 01:13:51;;;;;;;2.20;2.00;;;;;;;;;;5087403;28;20042;-41
2022/10/05 01:16:20;;;;;;;3.53;1.95;;;;;;;;;;5044486;28;20459;-41
2022/10/05 01:18:53;;;;;;;3.00;2.45;;;;;;;;;;5061761;28;20123;-41
2022/10/05 01:21:20;;;;;;;3.50;2.20;;;;;;;;;;5071485;28;20024;-41
2022/10/05 01:23:58;;;;;;;2.75;2.03;;;;;;;;;;5086961;28;20582;-41
2022/10/05 01:26:43;;;;;;;2.50;2.10;;;;;;;;;;5087235;28;20031;-41
2022/10/05 01:29:14;;;;;;;2.50;2.00;;;;;;;;;;5087034;28;20131;-42
2022/10/05 01:31:48;;;;;;;2.42;2.13;;;;;;;;;;5086781;28;20024;-41
2022/10/05 01:34:35;;;;;;;3.43;2.07;;;;;;;;;;5086889;28;20024;-41
2022/10/05 01:37:01;;;;;;;3.60;1.75;;;;;;;;;;5086694;28;20574;-41
2022/10/05 01:39:50;;;;;;;2.97;1.83;;;;;;;;;;5085659;28;20028;-41
2022/10/05 01:42:31;;;;;;;2.85;2.20;;;;;;;;;;5086217;28;20031;-41
2022/10/05 01:45:08;;;;;;;2.00;1.85;;;;;;;;;;5086651;28;20111;-41
2022/10/05 01:47:43;;;;;;;1.92;1.48;;;;;;;;;;5086822;28;20058;-41
2022/10/05 01:50:21;;;;;;;2.63;1.90;;;;;;;;;;5086880;28;20107;-41
2022/10/05 01:52:53;;;;;;;2.55;2.00;;;;;;;;;;5086348;28;20032;-41
2022/10/05 01:55:19;;;;;;;2.10;1.80;;;;;;;;;;5086226;28;20032;-41
2022/10/05 01:57:45;;;;;;;2.42;1.70;;;;;;;;;;5085455;28;20028;-40
2022/10/05 02:00:13;;;;;;;2.00;1.80;;;;;;;;;;5086108;28;20097;-41
2022/10/05 02:02:45;;;;;;;2.60;1.70;;;;;;;;;;5085961;28;20108;-41
2022/10/05 02:05:21;;;;;;;2.38;1.80;;;;;;;;;;5086594;28;20395;-41
2022/10/05 02:07:55;;;;;;;2.00;1.60;;;;;;;;;;5086278;28;20032;-41
2022/10/05 02:10:21;;;;;;;2.03;1.63;;;;;;;;;;5086667;28;20480;-41
2022/10/05 02:12:49;;;;;;;2.63;1.55;;;;;;;;;;5086189;28;20154;-41
2022/10/05 02:15:19;;;;;;;2.38;1.80;;;;;;;;;;5085006;28;20064;-41
2022/10/05 02:17:47;;;;;;;2.60;1.38;;;;;;;;;;5086087;28;20032;-40
2022/10/05 02:20:15;;;;;;;3.13;1.70;;;;;;;;;;5085136;28;20399;-41
2022/10/05 02:22:46;;;;;;;2.03;1.50;;;;;;;;;;5079942;28;20021;-42
2022/10/05 02:25:17;;;;;;;2.28;1.80;;;;;;;;;;5066925;28;20025;-40
2022/10/05 02:27:52;;;;;;;2.08;1.65;;;;;;;;;;5065916;28;20039;-41
2022/10/05 02:30:19;;;;;;;1.75;1.52;;;;;;;;;;5075607;28;20563;-41
2022/10/05 02:32:57;;;;;;;2.50;1.83;;;;;;;;;;5083608;28;20028;-42
2022/10/05 02:35:24;;;;;;;2.10;1.67;;;;;;;;;;5084169;28;20024;-42
2022/10/05 02:38:05;;;;;;;2.28;1.88;;;;;;;;;;5083787;28;20035;-41
2022/10/05 02:40:32;;;;;;;1.58;1.30;;;;;;;;;;5085082;28;20031;-41
2022/10/05 02:43:14;;;;;;;1.90;1.48;;;;;;;;;;5084529;28;20061;-41
2022/10/05 02:45:52;;;;;;;1.60;1.50;;;;;;;;;;5083640;28;20038;-41
2022/10/05 02:48:24;;;;;;;1.90;1.65;;;;;;;;;;5082946;28;20506;-41
2022/10/05 02:50:59;;;;;;;1.90;1.33;;;;;;;;;;5084127;28;20261;-41
2022/10/05 02:53:31;;;;;;;1.65;1.48;;;;;;;;;;5083899;28;20031;-41
2022/10/05 02:56:16;;;;;;;2.65;1.35;;;;;;;;;;5084104;28;20024;-41
2022/10/05 02:58:49;;;;;;;1.30;1.10;;;;;;;;;;5083701;28;20069;-41
2022/10/05 03:01:25;;;;;;;1.50;1.30;;;;;;;;;;5084103;28;20020;-41
2022/10/05 03:04:00;;;;;;;1.20;1.10;;;;;;;;;;5082748;28;20039;-41
2022/10/05 03:06:31;;;;;;;2.97;1.20;;;;;;;;;;5084008;28;20153;-41
2022/10/05 03:09:07;;;;;;;1.23;1.13;;;;;;;;;;5085372;28;20697;-41
2022/10/05 03:11:45;;;;;;;2.67;1.20;;;;;;;;;;5087501;28;20503;-41
2022/10/05 03:14:17;;;;;;;1.17;1.08;;;;;;;;;;5087437;28;20028;-41
2022/10/05 03:17:01;;;;;;;1.10;1.00;;;;;;;;;;5086321;28;20028;-41
2022/10/05 03:19:27;;;;;;;;;;;;;;;;;;5088490;28;20020;-41
2022/10/05 03:21:56;;;;;;;2.00;1.40;;;;;;;;;;5086988;28;19908;-41
2022/10/05 03:24:43;;;;;;;1.90;1.30;;;;;;;;;;5087306;28;20028;-41
2022/10/05 03:27:27;;;;;;;1.35;1.25;;;;;;;;;;5059883;28;20080;-41
2022/10/05 03:29:53;;;;;;;1.58;1.33;;;;;;;;;;5066801;28;20032;-41
2022/10/05 03:32:34;;;;;;;1.70;1.00;;;;;;;;;;5066600;28;20029;-42
2022/10/05 03:35:04;;;;;;;1.38;1.25;;;;;;;;;;5067401;28;20626;-41
2022/10/05 03:37:32;;;;;;;1.83;1.00;;;;;;;;;;5067548;28;20124;-41
2022/10/05 03:40:22;;;;;;;1.25;1.02;;;;;;;;;;5071911;28;20559;-41
2022/10/05 03:42:50;;;;;;;3.33;1.20;;;;;;;;;;5066643;28;20048;-41
2022/10/05 03:45:19;;;;;;;1.17;1.00;;;;;;;;;;5086853;28;20380;-41
2022/10/05 03:47:49;;;;;;;0.88;0.82;;;;;;;;;;5086478;28;20407;-41
2022/10/05 03:50:24;;;;;;;1.25;1.08;;;;;;;;;;5086891;28;20431;-41
2022/10/05 03:52:52;;;;;;;1.08;0.88;;;;;;;;;;5086263;28;20031;-41
2022/10/05 03:55:25;;;;;;;1.10;0.98;;;;;;;;;;5085777;28;20441;-41
2022/10/05 03:57:52;;;;;;;0.80;0.80;;;;;;;;;;5086291;28;20385;-41
2022/10/05 04:00:26;;;;;;;1.40;1.00;;;;;;;;;;5085533;28;20032;-41
2022/10/05 04:02:53;;;;;;;1.95;0.95;;;;;;;;;;5086047;28;20108;-42
2022/10/05 04:05:20;;;;;;;1.15;0.80;;;;;;;;;;5086562;28;20035;-41
2022/10/05 04:07:49;;;;;;;0.80;0.80;;;;;;;;;;5086065;28;20107;-41
2022/10/05 04:10:23;;;;;;;1.38;0.80;;;;;;;;;;5085730;28;20036;-41
2022/10/05 04:12:50;;;;;;;;;;;;;;;;;;5086258;28;20526;-41
2022/10/05 04:15:36;;;;;;;1.17;0.65;;;;;;;;;;5086188;28;19908;-41
2022/10/05 04:18:11;;;;;;;1.00;0.82;;;;;;;;;;5086017;28;20032;-41
2022/10/05 04:20:36;;;;;;;1.00;0.80;;;;;;;;;;5084341;28;20031;-41
2022/10/05 04:23:15;;;;;;;2.30;0.70;;;;;;;;;;5087098;28;20020;-41
2022/10/05 04:25:44;;;;;;;1.00;0.70;;;;;;;;;;5077570;28;20031;-41
2022/10/05 04:28:19;;;;;;;1.02;0.70;;;;;;;;;;5065788;28;20051;-41
2022/10/05 04:30:47;;;;;;;1.35;0.93;;;;;;;;;;5081799;28;20035;-41
2022/10/05 04:33:15;;;;;;;0.60;0.60;;;;;;;;;;5085913;28;20032;-41
2022/10/05 04:35:49;;;;;;;0.70;0.70;;;;;;;;;;5086122;28;20509;-41
2022/10/05 04:38:17;;;;;;;0.63;0.60;;;;;;;;;;5086316;28;20491;-41
2022/10/05 04:41:10;;;;;;;1.02;0.88;;;;;;;;;;5085978;28;20588;-41
2022/10/05 04:43:42;;;;;;;1.48;0.75;;;;;;;;;;5069192;28;20044;-41
2022/10/05 04:46:14;;;;;;;0.65;0.60;;;;;;;;;;5084074;28;20028;-41
2022/10/05 04:48:43;;;;;;;0.70;0.70;;;;;;;;;;5084675;28;20047;-41
2022/10/05 04:51:19;;;;;;;1.60;0.55;;;;;;;;;;5085706;28;20028;-41
2022/10/05 04:53:54;;;;;;;1.27;0.70;;;;;;;;;;5085710;28;20024;-41
2022/10/05 04:56:26;;;;;;;0.82;0.73;;;;;;;;;;5085593;28;20036;-41
2022/10/05 04:59:01;;;;;;;0.73;0.60;;;;;;;;;;5085016;28;20024;-41
2022/10/05 05:01:51;;;;;;;0.68;0.60;;;;;;;;;;5083538;28;20069;-41
2022/10/05 05:04:20;;;;;;;0.65;0.60;;;;;;;;;;5062087;28;20115;-41
2022/10/05 05:06:50;;;;;;;0.73;0.70;;;;;;;;;;5069769;28;20031;-41
2022/10/05 05:09:16;;;;;;;1.15;0.98;;;;;;;;;;5064628;28;20052;-41
2022/10/05 05:11:43;;;;;;;0.80;0.52;;;;;;;;;;5065289;28;20028;-41
2022/10/05 05:14:15;;;;;;;0.50;0.50;;;;;;;;;;5083337;28;20123;-41
2022/10/05 05:16:42;;;;;;;0.73;0.60;;;;;;;;;;5085712;28;20597;-41
2022/10/05 05:19:08;;;;;;;0.55;0.52;;;;;;;;;;5086462;28;20020;-40
2022/10/05 05:21:34;;;;;;;0.50;0.50;;;;;;;;;;5068906;28;20044;-41
2022/10/05 05:24:04;;;;;;;0.68;0.50;;;;;;;;;;5066125;28;20051;-41
2022/10/05 05:26:47;;;;;;;1.02;0.70;;;;;;;;;;5066346;28;20025;-41
2022/10/05 05:29:37;;;;;;;1.17;0.60;;;;;;;;;;5077572;28;20093;-41
2022/10/05 05:32:11;;;;;;;0.68;0.63;;;;;;;;;;5085534;28;20035;-41
2022/10/05 05:34:37;;;;;;;1.17;0.65;;;;;;;;;;5083639;28;20030;-40
2022/10/05 05:37:12;;;;;;;1.70;0.68;;;;;;;;;;5085704;28;20031;-40
2022/10/05 05:39:51;;;;;;;1.42;0.68;;;;;;;;;;5076518;28;20028;-41
2022/10/05 05:42:34;;;;;;;1.45;0.68;;;;;;;;;;5085623;28;20046;-40
2022/10/05 05:45:07;;;;;;;0.63;0.63;;;;;;;;;;5086175;28;20055;-41
2022/10/05 05:47:36;;;;;;;1.25;0.68;;;;;;;;;;5085496;28;20423;-41
2022/10/05 05:50:02;;;;;;;1.13;0.80;;;;;;;;;;5085983;28;20028;-41
2022/10/05 05:52:31;;;;;;;2.10;0.88;;;;;;;;;;5086393;28;20425;-41
2022/10/05 05:55:12;;;;;;;1.10;0.90;;;;;;;;;;5085596;28;20059;-40
2022/10/05 05:57:42;;;;;;;1.65;0.95;;;;;;;;;;5085929;28;20127;-40
2022/10/05 06:00:15;;;;;;;1.48;0.90;;;;;;;;;;5085946;28;20349;-41
2022/10/05 06:02:47;;;;;;;1.52;0.73;;;;;;;;;;5084258;28;20039;-41
2022/10/05 06:05:28;;;;;;;1.00;0.73;;;;;;;;;;5086671;28;20074;-41
2022/10/05 06:07:55;;;;;;;1.65;1.05;;;;;;;;;;5078724;28;20032;-40
2022/10/05 06:10:21;;;;;;;1.27;0.82;;;;;;;;;;5084356;28;20035;-41
2022/10/05 06:12:49;;;;;;;0.98;0.60;;;;;;;;;;5085707;28;20108;-41
2022/10/05 06:15:34;;;;;;;0.90;0.70;;;;;;;;;;5086468;28;20454;-41
2022/10/05 06:18:02;;;;;;;1.38;0.70;;;;;;;;;;5081169;28;20068;-40
2022/10/05 06:20:33;;;;;;;1.27;0.77;;;;;;;;;;5071003;28;20384;-40
2022/10/05 06:23:01;;;;;;;1.05;0.77;;;;;;;;;;5080910;28;20090;-41
2022/10/05 06:25:56;;;;;;;0.73;0.63;;;;;;;;;;5066555;28;20146;-40
2022/10/05 06:28:24;;;;;;;1.52;0.82;;;;;;;;;;5052506;28;20071;-42
2022/10/05 06:30:54;;;;;;;1.95;0.80;;;;;;;;;;5065138;28;20051;-41
2022/10/05 06:33:23;;;;;;;1.10;0.65;;;;;;;;;;5065614;28;20028;-41
2022/10/05 06:35:59;;;;;;;0.55;0.55;;;;;;;;;;5065258;28;20029;-41
2022/10/05 06:38:34;;;;;;;1.00;0.70;;;;;;;;;;5066416;28;20549;-41
2022/10/05 06:41:09;;;;;;;0.93;0.80;;;;;;;;;;5065555;28;20082;-41
2022/10/05 06:43:38;;;;;;;0.90;0.60;;;;;;;;;;5066937;28;20032;-40
2022/10/05 06:46:21;;;;;;;0.70;0.70;;;;;;;;;;5069293;28;20717;-40
2022/10/05 06:48:47;;;;;;;0.95;0.80;;;;;;;;;;5069133;28;20024;-41
2022/10/05 06:51:31;;;;;;;2.33;0.93;;;;;;;;;;5069265;28;20487;-41
2022/10/05 06:54:16;;;;;;;1.58;1.08;;;;;;;;;;5069471;28;20043;-41
2022/10/05 06:56:53;;;;;;;1.90;0.85;;;;;;;;;;5068904;28;20082;-40
2022/10/05 06:59:30;;;;;;;0.90;0.70;;;;;;;;;;5069156;28;20099;-41
2022/10/05 07:02:19;;;;;;;0.80;0.70;;;;;;;;;;5069525;28;20070;-40
2022/10/05 07:05:00;;;;;;;0.77;0.77;;;;;;;;;;5039828;28;20047;-41
2022/10/05 07:07:53;;;;;;;2.13;0.85;;;;;;;;;;5069798;28;20025;-40
2022/10/05 07:10:19;;;;;;;1.98;0.93;;;;;;;;;;5066036;28;20051;-41
2022/10/05 07:13:04;;;;;;;1.88;0.80;;;;;;;;;;5068771;28;20423;-41
2022/10/05 07:15:30;;;;;;;1.40;0.98;;;;;;;;;;5068787;28;20041;-40
2022/10/05 07:18:04;;;;;;;1.77;0.90;;;;;;;;;;5069301;28;20383;-41
2022/10/05 07:20:43;;;;;;;0.60;0.60;;;;;;;;;;5068973;28;20103;-41
2022/10/05 07:23:09;;;;;;;0.80;0.77;;;;;;;;;;5068814;28;20021;-41
2022/10/05 07:25:38;;;;;;;1.98;0.70;;;;;;;;;;5068409;28;20032;-41
2022/10/05 07:28:13;;;;;;;2.35;1.00;;;;;;;;;;5068671;28;20044;-41
2022/10/05 07:30:44;;;;;;;0.82;0.77;;;;;;;;;;5068269;28;20412;-41
2022/10/05 07:33:19;;;;;;;1.73;0.80;;;;;;;;;;5068628;28;20032;-42
2022/10/05 07:38:58;;;;;;;1.40;0.70;;;;;;;;;;5068356;28;20089;-41
2022/10/05 07:41:30;;;;;;;2.65;1.15;;;;;;;;;;5068919;28;20436;-41
2022/10/05 07:44:02;;;;;;;0.88;0.60;;;;;;;;;;5068703;28;20021;-41
2022/10/05 07:46:37;;;;;;;1.20;0.60;;;;;;;;;;5068306;28;20104;-41
2022/10/05 07:49:14;;;;;;;1.27;0.60;;;;;;;;;;5068431;28;20078;-41
2022/10/05 07:51:43;;;;;;;0.90;0.70;;;;;;;;;;5068069;28;20017;-41
2022/10/05 07:54:15;;;;;;;0.40;0.40;;;;;;;;;;5067467;28;20826;-41
2022/10/05 07:56:45;;;;;;;0.93;0.52;;;;;;;;;;5067198;28;20075;-41
2022/10/05 07:59:15;;;;;;;1.85;0.85;;;;;;;;;;5067897;28;20025;-41
2022/10/05 08:01:43;;;;;;;0.93;0.60;;;;;;;;;;5068000;28;20483;-41
2022/10/05 08:04:21;;;;;;;0.73;0.60;;;;;;;;;;5067714;28;20024;-42
2022/10/05 08:06:53;;;;;;;2.38;0.73;;;;;;;;;;5066749;28;20025;-41
2022/10/05 08:09:25;;;;;;;1.35;0.80;;;;;;;;;;5066550;28;20028;-41
2022/10/05 08:11:58;;;;;;;1.27;0.80;;;;;;;;;;5067258;28;20048;-41
2022/10/05 08:14:32;;;;;;;1.97;0.90;;;;;;;;;;5068445;28;20103;-41
2022/10/05 08:17:01;;;;;;;1.48;0.77;;;;;;;;;;5071537;28;20027;-41
2022/10/05 08:19:37;;;;;;;4.05;1.48;;;;;;;;;;5089605;28;20064;-41
2022/10/05 08:22:06;;;;;;;1.30;0.90;;;;;;;;;;5082928;28;20158;-41
2022/10/05 08:24:41;;;;;;;1.50;1.08;;;;;;;;;;5067769;28;20032;-41
2022/10/05 08:27:40;;;;;;;1.70;1.02;;;;;;;;;;5067616;28;20028;-41
2022/10/05 08:30:08;;;;;;;2.42;1.10;;;;;;;;;;5033521;28;20102;-41
2022/10/05 08:32:39;;;;;;;2.60;1.13;;;;;;;;;;5067043;28;20082;-42
2022/10/05 08:35:11;;;;;;;2.03;1.25;;;;;;;;;;5067392;28;20762;-41
2022/10/05 08:37:39;;;;;;;1.95;1.48;;;;;;;;;;5066982;28;20090;-41
2022/10/05 08:40:23;;;;;;;2.60;1.30;;;;;;;;;;5067405;28;20051;-41
2022/10/05 08:42:49;;;;;;;;;;;;;;;;;;5067223;28;20032;-42
2022/10/05 08:45:16;;;;;;;4.28;2.13;;;;;;;;;;5067343;28;19918;-42
2022/10/05 08:48:04;;;;;;;2.72;1.50;;;;;;;;;;5066801;28;20086;-41
2022/10/05 08:50:53;;;;;;;1.75;1.45;;;;;;;;;;5067104;28;20029;-41
2022/10/05 08:53:38;;;;;;;2.72;1.30;;;;;;;;;;5038144;28;20044;-42
2022/10/05 08:56:13;;;;;;;2.05;1.40;;;;;;;;;;5066922;28;20033;-41
2022/10/05 08:58:53;;;;;;;3.50;1.92;;;;;;;;;;5066616;28;20036;-41
2022/10/05 09:01:22;;;;;;;1.95;1.42;;;;;;;;;;5066724;28;21101;-42
2022/10/05 09:04:03;;;;;;;2.92;1.50;;;;;;;;;;5066397;28;20028;-42
2022/10/05 09:06:32;;;;;;;3.88;1.80;;;;;;;;;;5066602;28;20043;-41
2022/10/05 09:09:05;;;;;;;1.77;1.50;;;;;;;;;;5067380;28;20028;-41
2022/10/05 09:11:35;;;;;;;4.47;1.90;;;;;;;;;;5066560;28;20032;-42
2022/10/05 09:14:21;;;;;;;1.52;1.42;;;;;;;;;;5066515;28;20028;-41
2022/10/05 09:16:50;;;;;;;1.88;1.45;;;;;;;;;;5066081;28;20040;-41
2022/10/05 09:19:22;;;;;;;2.00;1.50;;;;;;;;;;5066600;28;20028;-42
2022/10/05 09:21:48;;;;;;;3.08;1.70;;;;;;;;;;5066031;28;20029;-41
2022/10/05 09:24:14;;;;;;;3.65;2.00;;;;;;;;;;5066356;28;20023;-41
2022/10/05 09:26:40;;;;;;;4.70;2.25;;;;;;;;;;5072527;28;20055;-41
2022/10/05 09:29:21;;;;;;;5.25;1.85;;;;;;;;;;5076786;28;20035;-42
2022/10/05 09:32:07;;;;;;;4.13;2.38;;;;;;;;;;5075469;28;20356;-42
2022/10/05 09:34:48;;;;;;;2.70;2.10;;;;;;;;;;5084451;28;20073;-43
2022/10/05 09:37:14;;;;;;;4.85;2.60;;;;;;;;;;5078572;28;20036;-41
2022/10/05 09:39:43;;;;;;;3.65;2.58;;;;;;;;;;5083949;28;20039;-41
2022/10/05 09:42:21;;;;;;;4.82;2.33;;;;;;;;;;5084422;28;20020;-42
2022/10/05 09:44:53;;;;;;;3.70;2.17;;;;;;;;;;5082159;28;20463;-41
2022/10/05 09:47:38;;;;;;;3.08;2.20;;;;;;;;;;5078468;28;20036;-42
2022/10/05 09:50:11;;;;;;;4.43;2.95;;;;;;;;;;5075507;28;20025;-41
2022/10/05 09:52:42;;;;;;;3.30;2.47;;;;;;;;;;5073370;28;20047;-41
2022/10/05 09:55:27;;;;;;;4.35;3.10;;;;;;;;;;5075154;28;20039;-41
2022/10/05 09:57:53;;;;;;;;;;;;;;;;;;5083381;28;20028;-41
2022/10/05 10:00:24;;;;;;;4.40;2.92;;;;;;;;;;5083725;28;20338;-42
2022/10/05 10:03:04;;;;;;;3.35;2.50;;;;;;;;;;5083051;28;20421;-41
2022/10/05 10:05:32;;;;;;;4.05;2.95;;;;;;;;;;5084217;28;20024;-41
2022/10/05 10:08:19;;;;;;;6.32;3.55;;;;;;;;;;5083827;28;20032;-42
2022/10/05 10:10:46;;;;;;;3.20;2.38;;;;;;;;;;5071257;28;20043;-42
2022/10/05 10:13:34;;;;;;;4.93;2.95;;;;;;;;;;5080847;28;20425;-42
2022/10/05 10:16:00;;;;;;;7.75;3.47;;;;;;;;;;5086950;28;20057;-41
2022/10/05 10:18:42;;;;;;;5.32;3.53;;;;;;;;;;5086747;28;20024;-41
2022/10/05 10:21:17;;;;;;;9.38;3.80;;;;;;;;;;5085058;28;20033;-42
2022/10/05 10:23:58;;;;;;;5.28;3.33;;;;;;;;;;5086510;28;20381;-42
2022/10/05 10:26:29;;;;;;;6.03;3.83;;;;;;;;;;5077633;28;20024;-42
2022/10/05 10:28:58;;;;;;;5.07;3.40;;;;;;;;;;5089835;28;20328;-42
2022/10/05 10:31:47;;;;;;;4.65;3.55;;;;;;;;;;5090922;28;20028;-42
2022/10/05 10:34:13;;;;;;;6.60;3.60;;;;;;;;;;5077754;28;20036;-42
2022/10/05 10:36:42;;;;;;;5.28;3.53;;;;;;;;;;5085010;28;20039;-42
2022/10/05 10:39:27;;;;;;;6.63;3.90;;;;;;;;;;5088052;28;20027;-43
2022/10/05 10:41:53;;;;;;;;;;;;;;;;;;5089159;28;20036;-42
2022/10/05 10:44:19;;;;;;;5.85;3.55;;;;;;;;;;5085018;28;20027;-41
2022/10/05 10:47:04;;;;;;;3.65;2.92;;;;;;;;;;5080972;28;20035;-42
2022/10/05 10:49:49;;;;;;;4.65;3.30;;;;;;;;;;5086354;28;20059;-41
2022/10/05 10:52:17;;;;;;;5.82;3.75;;;;;;;;;;5086362;28;20035;-41
2022/10/05 10:54:53;;;;;;;5.00;3.42;;;;;;;;;;5089546;28;20036;-41
2022/10/05 10:57:22;;;;;;;5.13;3.35;;;;;;;;;;5077106;28;20028;-41
2022/10/05 10:59:57;;;;;;;4.13;2.90;;;;;;;;;;5082602;28;20108;-42
2022/10/05 11:02:38;;;;;;;3.60;2.70;;;;;;;;;;5078499;28;20024;-41
2022/10/05 11:05:16;;;;;;;3.75;2.58;;;;;;;;;;5088255;28;20052;-41
2022/10/05 11:07:57;;;;;;;2.53;2.10;;;;;;;;;;5079839;28;20031;-42
2022/10/05 11:10:24;;;;;;;4.43;2.15;;;;;;;;;;5078028;28;20078;-41
2022/10/05 11:13:09;;;;;;;2.80;2.15;;;;;;;;;;5070486;28;20028;-41
2022/10/05 11:15:35;;;;;;;;;;;;;;;;;;5074029;28;20040;-41
2022/10/05 11:18:19;;;;;;;4.80;2.70;;;;;;;;;;5080077;28;19962;-41
2022/10/05 11:20:51;;;;;;;4.03;2.38;;;;;;;;;;5078888;28;20483;-41
2022/10/05 11:23:17;;;;;;;3.25;2.30;;;;;;;;;;5074091;28;20033;-42
2022/10/05 11:25:52;;;;;;;3.75;2.28;;;;;;;;;;5074722;28;20031;-42
2022/10/05 11:28:21;;;;;;;3.10;2.22;;;;;;;;;;5064280;28;20028;-43
2022/10/05 11:30:56;;;;;;;5.22;2.72;;;;;;;;;;5079398;28;20061;-43
2022/10/05 11:33:25;;;;;;;5.75;3.25;;;;;;;;;;5088080;28;20028;-44
2022/10/05 11:35:58;;;;;;;6.10;3.40;;;;;;;;;;5087270;28;20028;-43
2022/10/05 11:38:45;;;;;;;3.83;2.70;;;;;;;;;;5084084;28;20129;-43
2022/10/05 11:41:31;;;;;;;5.07;3.30;;;;;;;;;;5083147;28;20031;-43
2022/10/05 11:44:12;;;;;;;4.47;3.20;;;;;;;;;;5085674;28;20028;-43
2022/10/05 11:46:38;;;;;;;3.97;3.20;;;;;;;;;;5083489;28;20028;-43
2022/10/05 11:49:05;;;;;;;4.03;2.90;;;;;;;;;;5080791;28;20118;-42
2022/10/05 11:51:53;;;;;;;3.75;2.65;;;;;;;;;;5082214;28;20032;-43
2022/10/05 11:54:22;;;;;;;4.63;3.10;;;;;;;;;;5085880;28;20060;-44
2022/10/05 11:56:56;;;;;;;4.68;2.80;;;;;;;;;;5080370;28;20032;-43
2022/10/05 11:59:40;;;;;;;5.53;2.90;;;;;;;;;;5079751;28;20113;-43
2022/10/05 12:02:06;;;;;;;4.38;2.90;;;;;;;;;;5080858;28;20024;-44
2022/10/05 12:04:41;;;;;;;4.53;2.92;;;;;;;;;;5086534;28;20158;-43
2022/10/05 12:07:20;;;;;;;4.00;2.78;;;;;;;;;;5085430;28;20032;-45
2022/10/05 12:10:16;;;;;;;5.38;3.28;;;;;;;;;;5082367;28;20028;-44
2022/10/05 12:13:01;;;;;;;5.78;3.00;;;;;;;;;;5087128;28;20039;-43
2022/10/05 12:15:27;;;;;;;4.35;2.40;;;;;;;;;;5087915;28;20057;-43
2022/10/05 12:17:53;;;;;;;4.90;2.33;;;;;;;;;;5085682;28;20506;-43
2022/10/05 12:20:29;;;;;;;3.55;2.53;;;;;;;;;;5087646;28;20039;-43
2022/10/05 12:22:59;;;;;;;4.15;2.53;;;;;;;;;;5087452;28;20429;-43
2022/10/05 12:25:31;;;;;;;3.90;2.28;;;;;;;;;;5088251;28;20104;-45
2022/10/05 12:27:59;;;;;;;4.13;2.40;;;;;;;;;;5078542;28;20107;-44
2022/10/05 12:30:26;;;;;;;4.25;2.67;;;;;;;;;;5075518;28;20094;-43
2022/10/05 12:32:55;;;;;;;4.57;2.70;;;;;;;;;;5074133;28;20028;-44
2022/10/05 12:35:27;;;;;;;3.15;2.40;;;;;;;;;;5086734;28;20067;-43
2022/10/05 12:38:13;;;;;;;3.70;2.42;;;;;;;;;;5084200;28;20035;-44
2022/10/05 12:40:39;;;;;;;2.05;1.85;;;;;;;;;;5084365;28;20059;-46
2022/10/05 12:43:20;;;;;;;2.17;1.55;;;;;;;;;;5087009;28;20031;-43
2022/10/05 12:45:49;;;;;;;3.53;1.60;;;;;;;;;;5088365;28;20035;-44
2022/10/05 12:48:23;;;;;;;3.08;1.90;;;;;;;;;;5085263;28;20034;-44
2022/10/05 12:51:02;;;;;;;4.43;1.90;;;;;;;;;;5082385;28;20024;-42
2022/10/05 12:53:28;;;;;;;3.95;1.55;;;;;;;;;;5083751;28;20024;-43
2022/10/05 12:55:54;;;;;;;2.95;1.70;;;;;;;;;;5086369;28;20061;-43
2022/10/05 12:58:20;;;;;;;3.50;1.73;;;;;;;;;;5086685;28;20024;-43
2022/10/05 13:01:07;;;;;;;2.35;1.40;;;;;;;;;;5086838;28;20028;-43
2022/10/05 13:03:39;;;;;;;4.05;1.50;;;;;;;;;;5084394;28;20036;-43
2022/10/05 13:06:11;;;;;;;2.60;1.65;;;;;;;;;;5066989;28;20135;-43
2022/10/05 13:08:37;;;;;;;1.75;1.30;;;;;;;;;;5083665;28;20699;-44
2022/10/05 13:11:22;;;;;;;2.13;1.42;;;;;;;;;;5086952;28;20035;-44
2022/10/05 13:14:20;;;;;;;1.90;1.35;;;;;;;;;;5084759;28;20024;-43
2022/10/05 13:16:59;;;;;;;4.18;1.65;;;;;;;;;;5063029;28;20044;-43
2022/10/05 13:19:31;;;;;;;2.47;1.52;;;;;;;;;;5086322;28;20149;-43
2022/10/05 13:22:04;;;;;;;1.92;1.20;;;;;;;;;;5086954;28;20036;-44
2022/10/05 13:24:41;;;;;;;2.30;1.50;;;;;;;;;;5085118;28;20027;-42
2022/10/05 13:27:13;;;;;;;2.15;1.35;;;;;;;;;;5085447;28;20066;-43
2022/10/05 13:29:46;;;;;;;2.00;1.23;;;;;;;;;;5085201;28;20024;-43
2022/10/05 13:32:20;;;;;;;2.58;1.38;;;;;;;;;;5085847;28;20032;-42
2022/10/05 13:35:07;;;;;;;3.55;1.40;;;;;;;;;;5084701;28;20589;-43
2022/10/05 13:37:38;;;;;;;1.50;1.17;;;;;;;;;;5063224;28;20066;-43
2022/10/05 13:40:11;;;;;;;4.15;1.40;;;;;;;;;;5085558;28;20055;-42
2022/10/05 13:42:45;;;;;;;1.70;1.27;;;;;;;;;;5084981;28;20483;-44
2022/10/05 13:45:13;;;;;;;2.15;1.30;;;;;;;;;;5078816;28;20411;-43
2022/10/05 13:47:44;;;;;;;1.75;1.10;;;;;;;;;;5084724;28;20046;-43
2022/10/05 13:50:17;;;;;;;2.92;1.20;;;;;;;;;;5084806;28;20032;-42
2022/10/05 13:52:49;;;;;;;1.55;1.10;;;;;;;;;;5082149;28;20036;-44
2022/10/05 13:55:18;;;;;;;2.20;1.15;;;;;;;;;;5086362;28;20026;-43
2022/10/05 13:57:44;;;;;;;2.03;1.25;;;;;;;;;;5085471;28;20034;-41
2022/10/05 14:00:18;;;;;;;1.95;1.23;;;;;;;;;;5086767;28;20041;-41
2022/10/05 14:02:46;;;;;;;;;;;;;;;;;;5081827;28;20056;-40
2022/10/05 14:05:17;;;;;;;4.07;1.30;;;;;;;;;;5086512;28;19915;-41
2022/10/05 14:07:49;;;;;;;4.78;1.17;;;;;;;;;;5085988;28;20394;-40
2022/10/05 14:10:30;;;;;;;2.40;1.17;;;;;;;;;;5086728;28;20031;-40
2022/10/05 14:12:56;;;;;;;2.97;1.13;;;;;;;;;;5086436;28;20038;-41
2022/10/05 14:15:30;;;;;;;2.22;1.27;;;;;;;;;;5085872;28;20029;-40
2022/10/05 14:17:56;;;;;;;1.85;1.20;;;;;;;;;;5083611;28;20384;-41
2022/10/05 14:20:26;;;;;;;1.45;1.00;;;;;;;;;;5086314;28;20111;-41
2022/10/05 14:23:02;;;;;;;3.20;1.10;;;;;;;;;;5077698;28;20032;-40
2022/10/05 14:25:29;;;;;;;1.63;0.90;;;;;;;;;;5085621;28;20028;-40
2022/10/05 14:27:58;;;;;;;1.40;1.23;;;;;;;;;;5085022;28;20675;-41
2022/10/05 14:30:24;;;;;;;3.92;1.10;;;;;;;;;;5086125;28;20027;-40
2022/10/05 14:32:55;;;;;;;0.98;0.77;;;;;;;;;;5083916;28;20422;-40
2022/10/05 14:35:21;;;;;;;2.55;1.05;;;;;;;;;;5085687;28;20495;-41
2022/10/05 14:37:47;;;;;;;1.50;0.90;;;;;;;;;;5080351;28;20035;-40
2022/10/05 14:40:40;;;;;;;1.48;1.05;;;;;;;;;;5069039;28;20446;-40
2022/10/05 14:43:15;;;;;;;4.07;1.00;;;;;;;;;;5078625;28;20044;-40
2022/10/05 14:45:56;;;;;;;2.33;1.20;;;;;;;;;;5083595;28;20016;-41
2022/10/05 14:48:24;;;;;;;2.22;1.30;;;;;;;;;;5081609;28;20070;-41
2022/10/05 14:50:53;;;;;;;1.23;1.02;;;;;;;;;;5077553;28;20036;-40
2022/10/05 14:53:24;;;;;;;3.10;1.40;;;;;;;;;;5080730;28;20028;-41
2022/10/05 14:56:08;;;;;;;3.00;1.30;;;;;;;;;;5085409;28;20024;-41
2022/10/05 14:58:34;;;;;;;2.42;1.17;;;;;;;;;;5083521;28;20032;-40
2022/10/05 15:01:11;;;;;;;2.20;1.00;;;;;;;;;;5087140;28;20020;-41
2022/10/05 15:03:46;;;;;;;2.10;0.98;;;;;;;;;;5084340;28;20047;-41
2022/10/05 15:06:20;;;;;;;1.05;0.90;;;;;;;;;;5089703;28;20032;-40
2022/10/05 15:08:46;;;;;;;;;;;;;;;;;;5088408;28;20510;-40
2022/10/05 15:11:25;;;;;;;2.53;0.90;;;;;;;;;;5087989;28;19934;-40
2022/10/05 15:13:52;;;;;;;1.17;0.80;;;;;;;;;;5083895;28;20028;-41
2022/10/05 15:16:21;;;;;;;2.72;1.00;;;;;;;;;;5089103;28;20032;-40
2022/10/05 15:19:01;;;;;;;1.23;0.90;;;;;;;;;;5088213;28;20388;-41
2022/10/05 15:21:41;;;;;;;1.40;1.10;;;;;;;;;;5078216;28;20056;-41
2022/10/05 15:24:19;;;;;;;1.33;1.00;;;;;;;;;;5087983;28;20115;-41
2022/10/05 15:26:58;;;;;;;1.45;1.20;;;;;;;;;;5088966;28;20028;-41